createdAt,value
2018-06-14T00:01:27.030Z,92.40
2018-06-14T00:06:23.353Z,92.70
2018-06-14T00:08:51.545Z,92.50
2018-06-14T00:11:19.834Z,92.70
2018-06-14T00:13:48.083Z,93.10
2018-06-14T00:16:16.302Z,93.10
2018-06-14T00:18:44.537Z,92.90
2018-06-14T00:21:12.758Z,93.10
2018-06-14T00:23:41.014Z,93.10
2018-06-14T00:26:09.275Z,93.00
2018-06-14T00:28:37.468Z,93.20
2018-06-14T00:31:05.735Z,93.00
2018-06-14T00:33:33.963Z,92.90
2018-06-14T00:36:02.236Z,93.20
2018-06-14T00:38:30.445Z,93.20
2018-06-14T00:40:58.673Z,93.70
2018-06-14T00:43:26.978Z,94.00
2018-06-14T00:45:55.167Z,93.90
2018-06-14T00:48:23.402Z,94.00
2018-06-14T00:50:51.642Z,93.80
2018-06-14T00:53:19.849Z,94.20
2018-06-14T00:55:48.101Z,93.30
2018-06-14T00:58:16.297Z,93.60
2018-06-14T01:00:44.546Z,92.90
2018-06-14T01:03:12.913Z,92.70
2018-06-14T01:05:41.157Z,93.00
2018-06-14T01:08:09.436Z,93.30
2018-06-14T01:10:37.645Z,92.90
2018-06-14T01:13:05.877Z,93.10
2018-06-14T01:15:34.085Z,93.00
2018-06-14T01:18:02.314Z,93.10
2018-06-14T01:20:30.653Z,93.00
2018-06-14T01:22:58.848Z,92.80
2018-06-14T01:25:27.093Z,92.70
2018-06-14T01:27:55.298Z,93.20
2018-06-14T01:30:23.530Z,93.70
2018-06-14T01:32:51.761Z,94.30
2018-06-14T01:35:19.954Z,94.60
2018-06-14T01:37:59.366Z,94.80
2018-06-14T01:40:27.566Z,94.90
2018-06-14T01:42:55.884Z,95.20
2018-06-14T01:45:24.153Z,94.70
2018-06-14T01:47:52.374Z,94.20
2018-06-14T01:50:20.616Z,94.10
2018-06-14T01:52:48.818Z,94.60
2018-06-14T01:55:17.053Z,94.30
2018-06-14T01:57:45.277Z,94.70
2018-06-14T02:00:13.481Z,94.70
2018-06-14T02:02:41.705Z,94.60
2018-06-14T02:05:09.949Z,95.10
2018-06-14T02:07:38.191Z,94.80
2018-06-14T02:10:06.479Z,94.50
2018-06-14T02:12:34.693Z,94.00
2018-06-14T02:15:02.993Z,93.50
2018-06-14T02:17:31.196Z,93.60
2018-06-14T02:19:59.450Z,93.70
2018-06-14T02:22:27.693Z,93.70
2018-06-14T02:24:55.905Z,94.00
2018-06-14T02:27:24.193Z,94.10
2018-06-14T02:29:52.449Z,94.10
2018-06-14T02:32:21.396Z,94.00
2018-06-14T02:34:50.317Z,93.40
2018-06-14T02:37:18.638Z,92.70
2018-06-14T02:39:46.886Z,94.40
2018-06-14T02:42:15.161Z,94.80
2018-06-14T02:47:11.549Z,95.80
2018-06-14T02:49:39.875Z,96.20
2018-06-14T02:52:08.123Z,96.10
2018-06-14T02:54:36.357Z,95.90
2018-06-14T02:57:04.592Z,96.30
2018-06-14T02:59:32.814Z,95.50
2018-06-14T03:02:01.069Z,95.40
2018-06-14T03:06:57.288Z,95.10
2018-06-14T03:09:25.502Z,95.10
2018-06-14T03:11:53.795Z,95.20
2018-06-14T03:14:22.147Z,95.40
2018-06-14T03:16:50.471Z,95.60
2018-06-14T03:19:18.714Z,96.20
2018-06-14T03:21:47.030Z,95.50
2018-06-14T03:24:15.257Z,95.10
2018-06-14T03:26:43.830Z,95.20
2018-06-14T03:29:12.042Z,95.30
2018-06-14T03:31:40.345Z,95.60
2018-06-14T03:34:08.562Z,95.60
2018-06-14T03:36:36.970Z,95.40
2018-06-14T03:39:07.458Z,95.70
2018-06-14T03:41:35.758Z,95.30
2018-06-14T03:44:04.049Z,95.60
2018-06-14T03:46:32.271Z,95.40
2018-06-14T03:49:00.542Z,95.00
2018-06-14T03:51:28.802Z,95.10
2018-06-14T03:53:57.066Z,95.60
2018-06-14T03:56:25.290Z,95.70
2018-06-14T03:58:53.495Z,95.20
2018-06-14T04:01:21.829Z,95.00
2018-06-14T04:03:50.033Z,95.30
2018-06-14T04:06:18.269Z,95.20
2018-06-14T04:08:46.489Z,95.20
2018-06-14T04:11:14.690Z,95.40
2018-06-14T04:13:42.931Z,95.40
2018-06-14T04:16:11.143Z,95.40
2018-06-14T04:18:39.513Z,95.20
2018-06-14T04:21:07.694Z,95.10
2018-06-14T04:23:35.905Z,95.20
2018-06-14T04:26:04.171Z,95.50
2018-06-14T04:28:32.393Z,95.40
2018-06-14T04:31:00.705Z,95.30
2018-06-14T04:33:28.933Z,95.40
2018-06-14T04:35:57.127Z,94.40
2018-06-14T04:38:25.389Z,95.10
2018-06-14T04:40:53.585Z,94.70
2018-06-14T04:43:21.833Z,94.50
2018-06-14T04:45:50.154Z,94.60
2018-06-14T04:48:18.393Z,93.30
2018-06-14T04:50:46.667Z,93.70
2018-06-14T04:53:14.849Z,93.90
2018-06-14T04:55:43.105Z,92.80
2018-06-14T04:58:11.354Z,92.80
2018-06-14T05:00:39.569Z,92.10
2018-06-14T05:03:07.836Z,90.90
2018-06-14T05:05:36.195Z,91.70
2018-06-14T05:08:04.586Z,91.70
2018-06-14T05:10:32.844Z,91.00
2018-06-14T05:13:01.042Z,91.00
2018-06-14T05:15:29.350Z,90.70
2018-06-14T05:17:57.595Z,90.30
2018-06-14T05:20:25.849Z,90.10
2018-06-14T05:22:54.673Z,89.60
2018-06-14T05:25:22.924Z,88.00
2018-06-14T05:27:51.187Z,87.80
2018-06-14T05:30:19.463Z,85.20
2018-06-14T05:32:47.726Z,85.70
2018-06-14T05:35:16.608Z,86.80
2018-06-14T05:37:44.808Z,84.40
2018-06-14T05:40:13.063Z,85.00
2018-06-14T05:42:41.336Z,83.40
2018-06-14T05:45:09.605Z,81.90
2018-06-14T05:50:05.999Z,79.30
2018-06-14T05:52:34.254Z,78.70
2018-06-14T05:55:02.514Z,79.10
2018-06-14T05:57:30.752Z,77.50
2018-06-14T05:59:58.945Z,80.40
2018-06-14T06:02:27.246Z,82.00
2018-06-14T06:04:55.515Z,82.10
2018-06-14T06:07:24.161Z,82.90
2018-06-14T06:09:52.482Z,83.20
2018-06-14T06:12:20.671Z,82.00
2018-06-14T06:14:49.126Z,82.20
2018-06-14T06:17:17.373Z,82.70
2018-06-14T06:19:45.630Z,79.90
2018-06-14T06:22:13.897Z,80.40
2018-06-14T06:24:42.114Z,79.80
2018-06-14T06:27:10.370Z,79.90
2018-06-14T06:29:38.606Z,79.00
2018-06-14T06:32:06.818Z,79.40
2018-06-14T06:34:35.097Z,79.40
2018-06-14T06:37:03.339Z,76.70
2018-06-14T06:39:31.601Z,74.30
2018-06-14T06:41:59.837Z,76.90
2018-06-14T06:44:28.061Z,76.50
2018-06-14T06:46:56.306Z,77.60
2018-06-14T06:49:24.531Z,78.70
2018-06-14T06:51:52.873Z,75.30
2018-06-14T06:54:21.477Z,77.90
2018-06-14T06:56:49.749Z,77.70
2018-06-14T06:59:18.009Z,76.40
2018-06-14T07:01:46.221Z,77.00
2018-06-14T07:06:42.514Z,79.30
2018-06-14T07:09:11.815Z,77.90
2018-06-14T07:11:40.277Z,77.90
2018-06-14T07:14:08.537Z,77.50
2018-06-14T07:16:37.763Z,78.60
2018-06-14T07:19:06.067Z,78.80
2018-06-14T07:21:34.915Z,78.50
2018-06-14T07:24:03.234Z,76.60
2018-06-14T07:26:31.513Z,76.50
2018-06-14T07:28:59.817Z,77.70
2018-06-14T07:31:28.097Z,77.90
2018-06-14T07:33:56.382Z,77.60
2018-06-14T07:36:24.686Z,78.40
2018-06-14T07:38:52.928Z,78.30
2018-06-14T07:41:21.207Z,75.70
2018-06-14T07:43:49.461Z,74.00
2018-06-14T07:46:17.697Z,75.30
2018-06-14T07:48:45.964Z,75.90
2018-06-14T07:51:14.217Z,73.70
2018-06-14T07:53:42.440Z,71.80
2018-06-14T07:56:10.718Z,70.30
2018-06-14T07:58:38.944Z,73.10
2018-06-14T08:01:07.222Z,72.50
2018-06-14T08:03:35.477Z,74.60
2018-06-14T08:06:03.759Z,73.10
2018-06-14T08:08:32.006Z,73.40
2018-06-14T08:11:00.212Z,73.70
2018-06-14T08:13:28.517Z,75.30
2018-06-14T08:15:56.730Z,75.50
2018-06-14T08:18:25.429Z,71.40
2018-06-14T08:20:53.702Z,74.70
2018-06-14T08:23:21.907Z,73.50
2018-06-14T08:25:50.187Z,73.10
2018-06-14T08:28:18.408Z,73.70
2018-06-14T08:30:46.647Z,72.30
2018-06-14T08:33:14.868Z,72.70
2018-06-14T08:35:43.105Z,70.50
2018-06-14T08:38:11.386Z,70.10
2018-06-14T08:40:39.627Z,69.50
2018-06-14T08:43:07.886Z,72.60
2018-06-14T08:48:04.160Z,72.70
2018-06-14T08:50:32.408Z,72.10
2018-06-14T08:53:00.598Z,71.50
2018-06-14T08:55:29.005Z,71.10
2018-06-14T08:57:57.256Z,67.90
2018-06-14T09:00:25.513Z,68.60
2018-06-14T09:02:53.767Z,68.30
2018-06-14T09:05:22.001Z,69.40
2018-06-14T09:07:50.290Z,68.00
2018-06-14T09:10:18.544Z,66.80
2018-06-14T09:12:46.770Z,65.00
2018-06-14T09:15:15.086Z,66.80
2018-06-14T09:17:43.305Z,68.30
2018-06-14T09:20:11.681Z,68.70
2018-06-14T09:22:39.973Z,67.90
2018-06-14T09:25:08.231Z,68.30
2018-06-14T09:27:36.486Z,69.20
2018-06-14T09:30:05.148Z,67.80
2018-06-14T09:32:33.430Z,68.10
2018-06-14T09:35:01.678Z,70.10
2018-06-14T09:37:29.933Z,68.10
2018-06-14T09:39:58.174Z,67.70
2018-06-14T09:42:26.393Z,67.20
2018-06-14T09:44:54.649Z,66.60
2018-06-14T09:47:23.014Z,65.10
2018-06-14T09:49:51.593Z,66.40
2018-06-14T09:52:19.810Z,65.20
2018-06-14T09:54:48.038Z,63.30
2018-06-14T09:57:16.339Z,63.70
2018-06-14T09:59:44.626Z,66.00
2018-06-14T10:02:12.859Z,64.00
2018-06-14T10:04:41.124Z,65.70
2018-06-14T10:07:09.440Z,65.80
2018-06-14T10:09:37.755Z,61.90
2018-06-14T10:12:06.111Z,65.50
2018-06-14T10:14:34.362Z,63.90
2018-06-14T10:17:03.138Z,63.00
2018-06-14T10:19:31.502Z,63.00
2018-06-14T10:21:59.750Z,64.40
2018-06-14T10:24:28.012Z,64.80
2018-06-14T10:26:56.256Z,63.30
2018-06-14T10:29:24.574Z,63.30
2018-06-14T10:31:52.872Z,65.00
2018-06-14T10:34:21.102Z,62.40
2018-06-14T10:36:49.390Z,62.60
2018-06-14T10:39:17.620Z,62.50
2018-06-14T10:41:45.880Z,63.80
2018-06-14T10:44:14.109Z,64.60
2018-06-14T10:46:42.345Z,64.30
2018-06-14T10:49:10.573Z,65.60
2018-06-14T10:51:38.785Z,66.40
2018-06-14T10:54:07.048Z,63.80
2018-06-14T10:56:35.326Z,64.70
2018-06-14T10:59:03.623Z,65.40
2018-06-14T11:01:31.861Z,65.60
2018-06-14T11:04:00.078Z,65.00
2018-06-14T11:06:28.338Z,64.00
2018-06-14T11:08:56.529Z,62.50
2018-06-14T11:11:24.775Z,63.40
2018-06-14T11:13:53.012Z,66.00
2018-06-14T11:16:21.238Z,64.00
2018-06-14T11:18:49.466Z,63.00
2018-06-14T11:21:17.690Z,65.00
2018-06-14T11:23:45.960Z,64.20
2018-06-14T11:26:14.197Z,63.60
2018-06-14T11:28:42.394Z,63.00
2018-06-14T11:31:10.626Z,60.50
2018-06-14T11:33:38.857Z,59.60
2018-06-14T11:36:07.141Z,59.50
2018-06-14T11:38:35.412Z,61.60
2018-06-14T11:41:03.742Z,62.10
2018-06-14T11:43:31.986Z,59.10
2018-06-14T11:46:00.207Z,61.00
2018-06-14T11:48:28.465Z,63.80
2018-06-14T11:50:56.809Z,62.90
2018-06-14T11:53:25.043Z,62.80
2018-06-14T11:55:53.306Z,60.80
2018-06-14T11:58:21.586Z,60.60
2018-06-14T12:00:49.831Z,61.00
2018-06-14T12:03:18.113Z,61.20
2018-06-14T12:05:46.310Z,58.40
2018-06-14T12:08:14.576Z,59.40
2018-06-14T12:10:42.802Z,63.40
2018-06-14T12:13:11.090Z,61.60
2018-06-14T12:15:39.422Z,59.40
2018-06-14T12:18:07.639Z,61.00
2018-06-14T12:20:36.236Z,60.60
2018-06-14T12:23:04.470Z,61.30
2018-06-14T12:25:32.692Z,61.70
2018-06-14T12:28:00.950Z,62.40
2018-06-14T12:30:29.181Z,62.20
2018-06-14T12:32:57.421Z,65.10
2018-06-14T12:35:25.645Z,65.20
2018-06-14T12:37:53.878Z,65.80
2018-06-14T12:40:22.143Z,63.70
2018-06-14T12:42:50.353Z,64.40
2018-06-14T12:48:05.759Z,63.00
2018-06-14T12:50:34.027Z,62.90
2018-06-14T12:53:02.312Z,60.60
2018-06-14T12:55:30.551Z,59.30
2018-06-14T12:57:58.922Z,61.30
2018-06-14T13:00:27.205Z,60.00
2018-06-14T13:02:55.494Z,59.20
2018-06-14T13:05:23.764Z,60.10
2018-06-14T13:07:52.039Z,61.10
2018-06-14T13:10:20.394Z,59.70
2018-06-14T13:12:48.734Z,60.10
2018-06-14T13:15:16.975Z,58.80
2018-06-14T13:17:45.251Z,58.70
2018-06-14T13:20:13.488Z,61.30
2018-06-14T13:22:41.773Z,59.50
2018-06-14T13:25:10.052Z,60.90
2018-06-14T13:27:38.348Z,59.90
2018-06-14T13:30:06.660Z,61.70
2018-06-14T13:32:34.898Z,61.20
2018-06-14T13:35:03.306Z,62.70
2018-06-14T13:37:31.521Z,62.50
2018-06-14T13:39:59.777Z,61.60
2018-06-14T13:42:28.073Z,62.50
2018-06-14T13:44:56.282Z,61.10
2018-06-14T13:47:24.517Z,61.90
2018-06-14T13:49:52.727Z,63.70
2018-06-14T13:52:21.012Z,61.90
2018-06-14T13:54:49.298Z,61.90
2018-06-14T13:57:17.576Z,59.60
2018-06-14T13:59:45.885Z,61.10
2018-06-14T14:02:14.127Z,61.00
2018-06-14T14:04:42.425Z,60.70
2018-06-14T14:07:10.682Z,59.60
2018-06-14T14:09:38.945Z,58.60
2018-06-14T14:12:07.206Z,57.10
2018-06-14T14:14:35.426Z,58.00
2018-06-14T14:17:03.705Z,57.00
2018-06-14T14:19:31.937Z,57.20
2018-06-14T14:22:00.147Z,58.10
2018-06-14T14:24:28.427Z,59.10
2018-06-14T14:26:56.674Z,58.60
2018-06-14T14:29:24.937Z,57.40
2018-06-14T14:31:53.187Z,58.70
2018-06-14T14:34:21.471Z,58.30
2018-06-14T14:36:49.754Z,58.00
2018-06-14T14:39:18.071Z,56.50
2018-06-14T14:41:46.350Z,54.50
2018-06-14T14:44:14.699Z,55.20
2018-06-14T14:46:42.935Z,53.60
2018-06-14T14:49:11.180Z,54.90
2018-06-14T14:51:39.394Z,53.70
2018-06-14T14:54:07.741Z,54.80
2018-06-14T14:56:35.990Z,58.50
2018-06-14T14:59:04.345Z,59.30
2018-06-14T15:01:32.593Z,59.30
2018-06-14T15:04:00.814Z,59.20
2018-06-14T15:06:29.057Z,58.30
2018-06-14T15:08:57.328Z,60.20
2018-06-14T15:11:25.525Z,57.40
2018-06-14T15:13:54.036Z,57.10
2018-06-14T15:16:23.423Z,57.50
2018-06-14T15:18:51.909Z,57.90
2018-06-14T15:21:20.223Z,59.30
2018-06-14T15:23:48.498Z,60.90
2018-06-14T15:26:16.813Z,60.80
2018-06-14T15:28:45.042Z,61.70
2018-06-14T15:31:13.281Z,62.00
2018-06-14T15:33:41.552Z,64.00
2018-06-14T15:36:09.798Z,61.40
2018-06-14T15:38:38.134Z,60.30
2018-06-14T15:41:06.366Z,63.80
2018-06-14T15:43:34.609Z,60.50
2018-06-14T15:46:02.980Z,63.40
2018-06-14T15:48:31.249Z,59.60
2018-06-14T15:50:59.641Z,61.50
2018-06-14T15:53:28.051Z,62.30
2018-06-14T15:56:13.646Z,60.90
2018-06-14T15:58:42.467Z,60.00
2018-06-14T16:01:10.898Z,58.70
2018-06-14T16:03:39.165Z,60.30
2018-06-14T16:06:07.413Z,63.70
2018-06-14T16:08:35.736Z,62.70
2018-06-14T16:11:04.038Z,62.30
2018-06-14T16:13:32.321Z,63.80
2018-06-14T16:16:00.633Z,62.90
2018-06-14T16:18:28.865Z,62.20
2018-06-14T16:20:57.271Z,60.80
2018-06-14T16:23:25.526Z,63.50
2018-06-14T16:25:53.990Z,64.70
2018-06-14T16:28:22.271Z,64.50
2018-06-14T16:30:50.532Z,64.10
2018-06-14T16:33:18.851Z,62.30
2018-06-14T16:35:47.156Z,64.60
2018-06-14T16:38:15.393Z,64.20
2018-06-14T16:40:43.670Z,65.10
2018-06-14T16:43:12.336Z,62.90
2018-06-14T16:45:40.700Z,64.50
2018-06-14T16:48:09.172Z,66.20
2018-06-14T16:50:37.514Z,67.00
2018-06-14T16:53:05.898Z,64.70
2018-06-14T16:55:34.482Z,66.50
2018-06-14T16:58:02.976Z,66.00
2018-06-14T17:00:31.478Z,66.10
2018-06-14T17:02:59.872Z,66.10
2018-06-14T17:05:28.142Z,65.80
2018-06-14T17:07:56.468Z,66.00
2018-06-14T17:10:24.764Z,65.20
2018-06-14T17:12:53.073Z,65.20
2018-06-14T17:15:21.325Z,65.50
2018-06-14T17:17:49.645Z,66.30
2018-06-14T17:20:17.888Z,67.10
2018-06-14T17:22:46.153Z,66.90
2018-06-14T17:25:14.478Z,66.80
2018-06-14T17:27:42.790Z,66.70
2018-06-14T17:30:11.101Z,67.40
2018-06-14T17:32:39.360Z,66.00
2018-06-14T17:35:07.674Z,67.00
2018-06-14T17:37:35.973Z,67.10
2018-06-14T17:40:04.349Z,67.50
2018-06-14T17:42:32.638Z,67.50
2018-06-14T17:45:00.929Z,69.10
2018-06-14T17:47:29.226Z,69.50
2018-06-14T17:52:25.511Z,70.80
2018-06-14T17:54:54.746Z,68.60
2018-06-14T17:57:23.600Z,68.00
2018-06-14T17:59:52.349Z,68.40
2018-06-14T18:02:21.190Z,69.10
2018-06-14T18:04:51.259Z,68.70
2018-06-14T18:07:20.497Z,69.90
2018-06-14T18:09:49.435Z,69.80
2018-06-14T18:12:18.429Z,70.60
2018-06-14T18:14:47.155Z,70.60
2018-06-14T18:17:15.926Z,70.10
2018-06-14T18:19:44.670Z,70.20
2018-06-14T18:22:13.435Z,71.40
2018-06-14T18:24:42.095Z,71.30
2018-06-14T18:27:10.426Z,71.40
2018-06-14T18:29:38.641Z,71.20
2018-06-14T18:32:06.973Z,71.70
2018-06-14T18:34:35.368Z,72.70
2018-06-14T18:37:04.337Z,74.40
2018-06-14T18:39:33.576Z,74.60
2018-06-14T18:42:02.122Z,74.80
2018-06-14T18:44:30.737Z,75.50
2018-06-14T18:46:59.054Z,75.80
2018-06-14T18:49:27.340Z,75.90
2018-06-14T18:51:55.622Z,75.30
2018-06-14T18:54:23.912Z,76.10
2018-06-14T18:56:52.210Z,76.30
2018-06-14T18:59:20.530Z,76.40
2018-06-14T19:01:48.773Z,76.60
2018-06-14T19:04:17.836Z,77.70
2018-06-14T19:06:46.070Z,77.40
2018-06-14T19:09:14.430Z,77.40
2018-06-14T19:11:42.679Z,78.40
2018-06-14T19:14:10.923Z,78.20
2018-06-14T19:16:39.193Z,78.70
2018-06-14T19:19:08.409Z,79.00
2018-06-14T19:21:36.649Z,78.60
2018-06-14T19:24:04.956Z,78.30
2018-06-14T19:26:33.225Z,78.60
2018-06-14T19:29:01.606Z,79.30
2018-06-14T19:31:29.802Z,79.50
2018-06-14T19:33:58.063Z,79.10
2018-06-14T19:36:26.606Z,79.10
2018-06-14T19:38:54.928Z,79.00
2018-06-14T19:41:23.145Z,79.10
2018-06-14T19:43:51.373Z,78.90
2018-06-14T19:46:19.614Z,78.70
2018-06-14T19:48:48.061Z,79.00
2018-06-14T19:51:16.370Z,78.50
2018-06-14T19:53:44.977Z,78.10
2018-06-14T19:56:13.218Z,78.20
2018-06-14T19:58:43.113Z,77.90
2018-06-14T20:01:11.592Z,78.30
2018-06-14T20:03:40.096Z,78.00
2018-06-14T20:06:08.452Z,77.90
2018-06-14T20:08:38.175Z,77.80
2018-06-14T20:11:07.429Z,77.60
2018-06-14T20:13:37.309Z,77.30
2018-06-14T20:16:05.612Z,77.20
2018-06-14T20:18:33.846Z,77.80
2018-06-14T20:21:02.197Z,78.70
2018-06-14T20:23:31.074Z,79.20
2018-06-14T20:25:59.952Z,79.70
2018-06-14T20:28:28.223Z,80.20
2018-06-14T20:33:24.655Z,81.00
2018-06-14T20:35:53.858Z,80.80
2018-06-14T20:38:22.082Z,81.00
2018-06-14T20:40:51.241Z,80.90
2018-06-14T20:43:19.537Z,81.40
2018-06-14T20:45:47.838Z,81.40
2018-06-14T20:48:16.074Z,81.50
2018-06-14T20:50:44.337Z,81.90
2018-06-14T20:53:12.545Z,82.10
2018-06-14T20:55:41.314Z,82.60
2018-06-14T20:58:09.557Z,82.40
2018-06-14T21:00:38.481Z,82.80
2018-06-14T21:03:06.741Z,82.90
2018-06-14T21:05:34.973Z,83.40
2018-06-14T21:08:03.201Z,83.50
2018-06-14T21:10:31.901Z,83.30
2018-06-14T21:13:00.170Z,83.60
2018-06-14T21:15:28.453Z,83.80
2018-06-14T21:17:56.756Z,83.80
2018-06-14T21:20:24.982Z,83.80
2018-06-14T21:22:53.210Z,84.20
2018-06-14T21:25:21.517Z,84.80
2018-06-14T21:27:49.748Z,85.10
2018-06-14T21:30:18.027Z,85.90
2018-06-14T21:32:46.258Z,86.90
2018-06-14T21:35:14.885Z,87.00
2018-06-14T21:37:43.159Z,87.10
2018-06-14T21:40:11.451Z,86.90
2018-06-14T21:42:39.694Z,87.00
2018-06-14T21:45:07.965Z,86.50
2018-06-14T21:47:36.245Z,86.60
2018-06-14T21:50:04.531Z,86.50
2018-06-14T21:52:32.800Z,86.10
2018-06-14T21:55:01.054Z,85.90
2018-06-14T21:57:29.289Z,87.00
2018-06-14T21:59:57.575Z,87.70
2018-06-14T22:02:26.386Z,87.50
2018-06-14T22:04:55.168Z,87.60
2018-06-14T22:07:23.837Z,87.80
2018-06-14T22:09:52.577Z,88.10
2018-06-14T22:12:21.327Z,88.30
2018-06-14T22:14:49.984Z,88.80
2018-06-14T22:17:18.325Z,88.70
2018-06-14T22:19:46.550Z,88.40
2018-06-14T22:22:14.769Z,89.20
2018-06-14T22:24:42.982Z,88.70
2018-06-14T22:27:11.281Z,88.80
2018-06-14T22:29:39.511Z,89.00
2018-06-14T22:32:07.765Z,88.30
2018-06-14T22:34:47.165Z,87.80
2018-06-14T22:37:15.414Z,88.40
2018-06-14T22:39:43.633Z,88.20
2018-06-14T22:42:11.892Z,88.30
2018-06-14T22:44:40.111Z,88.50
2018-06-14T22:47:08.378Z,88.50
2018-06-14T22:49:36.580Z,88.20
2018-06-14T22:52:40.804Z,88.10
2018-06-14T22:55:08.994Z,88.10
2018-06-14T22:57:37.238Z,88.20
2018-06-14T23:00:05.606Z,88.20
2018-06-14T23:05:01.834Z,87.80
2018-06-14T23:07:30.101Z,87.60
2018-06-14T23:10:10.126Z,87.50
2018-06-14T23:12:38.470Z,87.40
2018-06-14T23:15:06.695Z,89.00
2018-06-14T23:17:34.962Z,90.10
2018-06-14T23:20:03.219Z,90.80
2018-06-14T23:22:31.470Z,91.00
2018-06-14T23:24:59.686Z,90.80
2018-06-14T23:27:27.916Z,90.80
2018-06-14T23:29:56.218Z,90.40
2018-06-14T23:32:24.473Z,90.50
2018-06-14T23:34:52.683Z,91.00
2018-06-14T23:37:20.926Z,91.20
2018-06-14T23:39:49.182Z,90.80
2018-06-14T23:42:17.489Z,90.40
2018-06-14T23:44:45.691Z,89.90
2018-06-14T23:47:13.937Z,89.60
2018-06-14T23:49:42.144Z,89.10
2018-06-14T23:52:10.396Z,88.80
2018-06-14T23:54:38.746Z,88.80
2018-06-14T23:57:06.993Z,89.10
2018-06-14T23:59:35.189Z,88.70
